sensor_id;sensor_type;location;lat;lon;timestamp;temperature;humidity
15455;DHT22;21057;51.024;7.540;2023-04-15T00:02:15;8.90;99.90
15455;DHT22;21057;51.024;7.540;2023-04-15T00:04:44;8.90;99.90
15455;DHT22;21057;51.024;7.540;2023-04-15T00:07:11;8.80;99.90
15455;DHT22;21057;51.024;7.540;2023-04-15T00:09:46;8.70;99.90
15455;DHT22;21057;51.024;7.540;2023-04-15T00:12:13;8.80;99.90
15455;DHT22;21057;51.024;7.540;2023-04-15T00:14:40;8.90;99.90
15455;DHT22;21057;51.024;7.540;2023-04-15T00:17:07;9.00;99.90
15455;DHT22;21057;51.024;7.540;2023-04-15T00:19:33;9.00;99.90
15455;DHT22;21057;51.024;7.540;2023-04-15T00:22:01;9.10;99.90
15455;DHT22;21057;51.024;7.540;2023-04-15T00:24:28;9.10;99.90
15455;DHT22;21057;51.024;7.540;2023-04-15T00:26:57;9.10;99.90
15455;DHT22;21057;51.024;7.540;2023-04-15T00:29:24;9.00;99.90
15455;DHT22;21057;51.024;7.540;2023-04-15T00:31:51;9.10;99.90
15455;DHT22;21057;51.024;7.540;2023-04-15T00:34:20;9.20;99.90
15455;DHT22;21057;51.024;7.540;2023-04-15T00:36:48;9.10;99.90
15455;DHT22;21057;51.024;7.540;2023-04-15T00:39:18;9.00;99.90
15455;DHT22;21057;51.024;7.540;2023-04-15T00:41:45;8.90;99.90
15455;DHT22;21057;51.024;7.540;2023-04-15T00:44:13;8.90;99.90
15455;DHT22;21057;51.024;7.540;2023-04-15T00:46:40;8.90;99.90
15455;DHT22;21057;51.024;7.540;2023-04-15T00:49:08;8.80;99.90
15455;DHT22;21057;51.024;7.540;2023-04-15T00:51:48;8.90;99.90
15455;DHT22;21057;51.024;7.540;2023-04-15T00:54:25;8.90;99.90
15455;DHT22;21057;51.024;7.540;2023-04-15T00:56:52;8.80;99.90
15455;DHT22;21057;51.024;7.540;2023-04-15T00:59:20;8.80;99.90
15455;DHT22;21057;51.024;7.540;2023-04-15T01:01:48;8.70;99.90
15455;DHT22;21057;51.024;7.540;2023-04-15T01:04:24;8.80;99.90
15455;DHT22;21057;51.024;7.540;2023-04-15T01:06:51;8.70;99.90
15455;DHT22;21057;51.024;7.540;2023-04-15T01:09:19;8.60;99.90
15455;DHT22;21057;51.024;7.540;2023-04-15T01:11:53;8.60;99.90
15455;DHT22;21057;51.024;7.540;2023-04-15T01:14:22;8.70;99.90
15455;DHT22;21057;51.024;7.540;2023-04-15T01:16:49;8.70;99.90
15455;DHT22;21057;51.024;7.540;2023-04-15T01:19:16;8.70;99.90
15455;DHT22;21057;51.024;7.540;2023-04-15T01:21:44;8.70;99.90
15455;DHT22;21057;51.024;7.540;2023-04-15T01:24:12;8.70;99.90
15455;DHT22;21057;51.024;7.540;2023-04-15T01:26:42;8.80;99.90
15455;DHT22;21057;51.024;7.540;2023-04-15T01:29:15;8.70;99.90
15455;DHT22;21057;51.024;7.540;2023-04-15T01:31:49;8.50;99.90
15455;DHT22;21057;51.024;7.540;2023-04-15T01:34:16;8.50;99.90
15455;DHT22;21057;51.024;7.540;2023-04-15T01:36:43;8.40;99.90
15455;DHT22;21057;51.024;7.540;2023-04-15T01:39:10;8.40;99.90
15455;DHT22;21057;51.024;7.540;2023-04-15T01:41:37;8.30;99.90
15455;DHT22;21057;51.024;7.540;2023-04-15T01:44:06;8.40;99.90
15455;DHT22;21057;51.024;7.540;2023-04-15T01:46:34;8.50;99.90
15455;DHT22;21057;51.024;7.540;2023-04-15T01:49:01;8.20;99.90
15455;DHT22;21057;51.024;7.540;2023-04-15T01:51:29;8.00;99.90
15455;DHT22;21057;51.024;7.540;2023-04-15T01:53:56;7.90;99.90
15455;DHT22;21057;51.024;7.540;2023-04-15T01:56:23;8.00;99.90
15455;DHT22;21057;51.024;7.540;2023-04-15T01:58:50;8.00;99.90
15455;DHT22;21057;51.024;7.540;2023-04-15T02:01:18;8.10;99.90
15455;DHT22;21057;51.024;7.540;2023-04-15T02:03:46;8.20;99.90
15455;DHT22;21057;51.024;7.540;2023-04-15T02:06:13;8.20;99.90
15455;DHT22;21057;51.024;7.540;2023-04-15T02:08:40;8.10;99.90
15455;DHT22;21057;51.024;7.540;2023-04-15T02:11:09;8.10;99.90
15455;DHT22;21057;51.024;7.540;2023-04-15T02:13:42;8.10;99.90
15455;DHT22;21057;51.024;7.540;2023-04-15T02:16:15;7.90;99.90
15455;DHT22;21057;51.024;7.540;2023-04-15T02:18:43;7.80;99.90
15455;DHT22;21057;51.024;7.540;2023-04-15T02:21:10;7.80;99.90
15455;DHT22;21057;51.024;7.540;2023-04-15T02:23:47;7.60;99.90
15455;DHT22;21057;51.024;7.540;2023-04-15T02:26:14;7.60;99.90
15455;DHT22;21057;51.024;7.540;2023-04-15T02:28:45;7.60;99.90
15455;DHT22;21057;51.024;7.540;2023-04-15T02:31:13;7.60;99.90
15455;DHT22;21057;51.024;7.540;2023-04-15T02:33:40;7.50;99.90
15455;DHT22;21057;51.024;7.540;2023-04-15T02:36:08;7.40;99.90
15455;DHT22;21057;51.024;7.540;2023-04-15T02:38:46;7.40;99.90
15455;DHT22;21057;51.024;7.540;2023-04-15T02:41:18;7.50;99.90
15455;DHT22;21057;51.024;7.540;2023-04-15T02:43:47;7.50;99.90
15455;DHT22;21057;51.024;7.540;2023-04-15T02:46:14;7.60;99.90
15455;DHT22;21057;51.024;7.540;2023-04-15T02:48:42;7.60;99.90
15455;DHT22;21057;51.024;7.540;2023-04-15T02:51:15;7.50;99.90
15455;DHT22;21057;51.024;7.540;2023-04-15T02:53:44;7.50;99.90
15455;DHT22;21057;51.024;7.540;2023-04-15T02:56:29;7.30;99.90
15455;DHT22;21057;51.024;7.540;2023-04-15T02:58:56;7.20;99.90
15455;DHT22;21057;51.024;7.540;2023-04-15T03:01:23;7.30;99.90
15455;DHT22;21057;51.024;7.540;2023-04-15T03:03:50;7.30;99.90
15455;DHT22;21057;51.024;7.540;2023-04-15T03:06:18;7.60;99.90
15455;DHT22;21057;51.024;7.540;2023-04-15T03:08:45;7.50;99.90
15455;DHT22;21057;51.024;7.540;2023-04-15T03:11:13;7.40;99.90
15455;DHT22;21057;51.024;7.540;2023-04-15T03:13:40;7.30;99.90
15455;DHT22;21057;51.024;7.540;2023-04-15T03:16:07;7.10;99.90
15455;DHT22;21057;51.024;7.540;2023-04-15T03:18:34;7.00;99.90
15455;DHT22;21057;51.024;7.540;2023-04-15T03:21:01;6.90;99.90
15455;DHT22;21057;51.024;7.540;2023-04-15T03:23:30;7.00;99.90
15455;DHT22;21057;51.024;7.540;2023-04-15T03:26:01;7.00;99.90
15455;DHT22;21057;51.024;7.540;2023-04-15T03:28:28;7.20;99.90
15455;DHT22;21057;51.024;7.540;2023-04-15T03:30:54;7.20;99.90
15455;DHT22;21057;51.024;7.540;2023-04-15T03:33:21;7.30;99.90
15455;DHT22;21057;51.024;7.540;2023-04-15T03:35:55;7.20;99.90
15455;DHT22;21057;51.024;7.540;2023-04-15T03:38:22;7.20;99.90
15455;DHT22;21057;51.024;7.540;2023-04-15T03:40:50;7.10;99.90
15455;DHT22;21057;51.024;7.540;2023-04-15T03:43:17;6.90;99.90
15455;DHT22;21057;51.024;7.540;2023-04-15T03:45:46;6.80;99.90
15455;DHT22;21057;51.024;7.540;2023-04-15T03:48:13;6.70;99.90
15455;DHT22;21057;51.024;7.540;2023-04-15T03:50:39;6.60;99.90
15455;DHT22;21057;51.024;7.540;2023-04-15T03:53:16;6.50;99.90
15455;DHT22;21057;51.024;7.540;2023-04-15T03:55:46;6.50;99.90
15455;DHT22;21057;51.024;7.540;2023-04-15T03:58:15;6.40;99.90
15455;DHT22;21057;51.024;7.540;2023-04-15T04:00:42;6.30;99.90
15455;DHT22;21057;51.024;7.540;2023-04-15T04:03:09;6.30;99.90
15455;DHT22;21057;51.024;7.540;2023-04-15T04:05:37;6.30;99.90
15455;DHT22;21057;51.024;7.540;2023-04-15T04:08:06;6.20;99.90
15455;DHT22;21057;51.024;7.540;2023-04-15T04:10:39;6.30;99.90
15455;DHT22;21057;51.024;7.540;2023-04-15T04:13:25;6.40;99.90
15455;DHT22;21057;51.024;7.540;2023-04-15T04:15:52;6.50;99.90
15455;DHT22;21057;51.024;7.540;2023-04-15T04:18:19;6.40;99.90
15455;DHT22;21057;51.024;7.540;2023-04-15T04:20:46;6.30;99.90
15455;DHT22;21057;51.024;7.540;2023-04-15T04:23:16;6.20;99.90
15455;DHT22;21057;51.024;7.540;2023-04-15T04:25:51;6.00;99.90
15455;DHT22;21057;51.024;7.540;2023-04-15T04:28:18;6.00;99.90
15455;DHT22;21057;51.024;7.540;2023-04-15T04:30:46;6.10;99.90
15455;DHT22;21057;51.024;7.540;2023-04-15T04:33:13;6.20;99.90
15455;DHT22;21057;51.024;7.540;2023-04-15T04:35:40;6.10;99.90
15455;DHT22;21057;51.024;7.540;2023-04-15T04:38:06;6.10;99.90
15455;DHT22;21057;51.024;7.540;2023-04-15T04:40:33;6.10;99.90
15455;DHT22;21057;51.024;7.540;2023-04-15T04:43:12;6.00;99.90
15455;DHT22;21057;51.024;7.540;2023-04-15T04:45:40;6.10;99.90
15455;DHT22;21057;51.024;7.540;2023-04-15T04:48:08;6.20;99.90
15455;DHT22;21057;51.024;7.540;2023-04-15T04:50:45;6.40;99.90
15455;DHT22;21057;51.024;7.540;2023-04-15T04:53:12;6.50;99.90
15455;DHT22;21057;51.024;7.540;2023-04-15T04:55:39;6.50;99.90
15455;DHT22;21057;51.024;7.540;2023-04-15T04:58:09;6.40;99.90
15455;DHT22;21057;51.024;7.540;2023-04-15T05:00:41;6.40;99.90
15455;DHT22;21057;51.024;7.540;2023-04-15T05:03:09;6.40;99.90
15455;DHT22;21057;51.024;7.540;2023-04-15T05:05:36;6.20;99.90
15455;DHT22;21057;51.024;7.540;2023-04-15T05:08:06;6.20;99.90
15455;DHT22;21057;51.024;7.540;2023-04-15T05:10:42;6.20;99.90
15455;DHT22;21057;51.024;7.540;2023-04-15T05:13:09;6.40;99.90
15455;DHT22;21057;51.024;7.540;2023-04-15T05:15:36;6.50;99.90
15455;DHT22;21057;51.024;7.540;2023-04-15T05:18:06;6.70;99.90
15455;DHT22;21057;51.024;7.540;2023-04-15T05:20:35;6.70;99.90
15455;DHT22;21057;51.024;7.540;2023-04-15T05:23:02;6.60;99.90
15455;DHT22;21057;51.024;7.540;2023-04-15T05:25:28;6.70;99.90
15455;DHT22;21057;51.024;7.540;2023-04-15T05:27:56;6.70;99.90
15455;DHT22;21057;51.024;7.540;2023-04-15T05:30:24;6.70;99.90
15455;DHT22;21057;51.024;7.540;2023-04-15T05:32:51;6.90;99.90
15455;DHT22;21057;51.024;7.540;2023-04-15T05:35:19;7.00;99.90
15455;DHT22;21057;51.024;7.540;2023-04-15T05:37:48;7.00;99.90
15455;DHT22;21057;51.024;7.540;2023-04-15T05:40:15;6.90;99.90
15455;DHT22;21057;51.024;7.540;2023-04-15T05:42:48;6.90;99.90
15455;DHT22;21057;51.024;7.540;2023-04-15T05:45:15;7.00;99.90
15455;DHT22;21057;51.024;7.540;2023-04-15T05:47:42;6.90;99.90
15455;DHT22;21057;51.024;7.540;2023-04-15T05:50:09;6.80;99.90
15455;DHT22;21057;51.024;7.540;2023-04-15T05:52:36;6.80;99.90
15455;DHT22;21057;51.024;7.540;2023-04-15T05:55:07;6.90;99.90
15455;DHT22;21057;51.024;7.540;2023-04-15T05:57:35;7.00;99.90
15455;DHT22;21057;51.024;7.540;2023-04-15T06:00:03;7.20;99.90
15455;DHT22;21057;51.024;7.540;2023-04-15T06:02:30;7.20;99.90
15455;DHT22;21057;51.024;7.540;2023-04-15T06:04:58;7.20;99.90
15455;DHT22;21057;51.024;7.540;2023-04-15T06:07:31;7.40;99.90
15455;DHT22;21057;51.024;7.540;2023-04-15T06:09:59;7.50;99.90
15455;DHT22;21057;51.024;7.540;2023-04-15T06:12:27;7.50;99.90
15455;DHT22;21057;51.024;7.540;2023-04-15T06:14:56;7.50;99.90
15455;DHT22;21057;51.024;7.540;2023-04-15T06:17:31;7.60;99.90
15455;DHT22;21057;51.024;7.540;2023-04-15T06:19:58;7.80;99.90
15455;DHT22;21057;51.024;7.540;2023-04-15T06:22:38;7.80;99.90
15455;DHT22;21057;51.024;7.540;2023-04-15T06:25:06;7.90;99.90
15455;DHT22;21057;51.024;7.540;2023-04-15T06:27:35;8.10;99.90
15455;DHT22;21057;51.024;7.540;2023-04-15T06:30:02;8.10;99.90
15455;DHT22;21057;51.024;7.540;2023-04-15T06:32:28;8.20;99.90
15455;DHT22;21057;51.024;7.540;2023-04-15T06:34:57;8.30;99.90
15455;DHT22;21057;51.024;7.540;2023-04-15T06:37:24;8.40;99.90
15455;DHT22;21057;51.024;7.540;2023-04-15T06:39:51;8.50;99.90
15455;DHT22;21057;51.024;7.540;2023-04-15T06:42:30;8.70;99.90
15455;DHT22;21057;51.024;7.540;2023-04-15T06:44:58;9.00;99.90
15455;DHT22;21057;51.024;7.540;2023-04-15T06:47:25;9.10;99.90
15455;DHT22;21057;51.024;7.540;2023-04-15T06:49:58;9.30;99.90
15455;DHT22;21057;51.024;7.540;2023-04-15T06:52:26;9.30;99.90
15455;DHT22;21057;51.024;7.540;2023-04-15T06:54:53;9.40;99.90
15455;DHT22;21057;51.024;7.540;2023-04-15T06:57:21;9.60;99.90
15455;DHT22;21057;51.024;7.540;2023-04-15T07:00:00;9.60;99.90
15455;DHT22;21057;51.024;7.540;2023-04-15T07:02:30;9.60;99.90
15455;DHT22;21057;51.024;7.540;2023-04-15T07:04:56;9.70;99.90
15455;DHT22;21057;51.024;7.540;2023-04-15T07:07:25;9.80;99.90
15455;DHT22;21057;51.024;7.540;2023-04-15T07:10:08;10.00;99.90
15455;DHT22;21057;51.024;7.540;2023-04-15T07:12:36;10.20;99.90
15455;DHT22;21057;51.024;7.540;2023-04-15T07:15:05;10.30;99.90
15455;DHT22;21057;51.024;7.540;2023-04-15T07:17:36;10.30;99.90
15455;DHT22;21057;51.024;7.540;2023-04-15T07:20:08;10.40;99.90
15455;DHT22;21057;51.024;7.540;2023-04-15T07:22:52;10.40;99.90
15455;DHT22;21057;51.024;7.540;2023-04-15T07:25:24;10.60;99.90
15455;DHT22;21057;51.024;7.540;2023-04-15T07:27:52;10.60;99.90
15455;DHT22;21057;51.024;7.540;2023-04-15T07:30:21;10.80;99.90
15455;DHT22;21057;51.024;7.540;2023-04-15T07:32:47;10.90;99.90
15455;DHT22;21057;51.024;7.540;2023-04-15T07:35:14;11.00;99.90
15455;DHT22;21057;51.024;7.540;2023-04-15T07:37:48;11.00;99.90
15455;DHT22;21057;51.024;7.540;2023-04-15T07:40:15;11.10;99.90
15455;DHT22;21057;51.024;7.540;2023-04-15T07:42:42;11.30;99.90
15455;DHT22;21057;51.024;7.540;2023-04-15T07:45:09;11.30;99.90
15455;DHT22;21057;51.024;7.540;2023-04-15T07:47:43;11.40;99.90
15455;DHT22;21057;51.024;7.540;2023-04-15T07:50:10;11.40;99.90
15455;DHT22;21057;51.024;7.540;2023-04-15T07:52:37;11.40;99.90
15455;DHT22;21057;51.024;7.540;2023-04-15T07:55:05;11.40;99.90
15455;DHT22;21057;51.024;7.540;2023-04-15T07:57:42;11.60;99.90
15455;DHT22;21057;51.024;7.540;2023-04-15T08:00:09;11.70;99.90
15455;DHT22;21057;51.024;7.540;2023-04-15T08:02:36;11.70;99.90
15455;DHT22;21057;51.024;7.540;2023-04-15T08:05:07;11.80;99.90
15455;DHT22;21057;51.024;7.540;2023-04-15T08:07:36;11.70;99.90
15455;DHT22;21057;51.024;7.540;2023-04-15T08:10:04;11.70;99.90
15455;DHT22;21057;51.024;7.540;2023-04-15T08:12:31;11.70;99.90
15455;DHT22;21057;51.024;7.540;2023-04-15T08:14:59;12.00;99.90
15455;DHT22;21057;51.024;7.540;2023-04-15T08:17:26;12.20;99.90
15455;DHT22;21057;51.024;7.540;2023-04-15T08:19:53;12.20;99.90
15455;DHT22;21057;51.024;7.540;2023-04-15T08:22:24;12.50;99.90
15455;DHT22;21057;51.024;7.540;2023-04-15T08:24:54;12.80;99.90
15455;DHT22;21057;51.024;7.540;2023-04-15T08:27:22;13.10;99.90
15455;DHT22;21057;51.024;7.540;2023-04-15T08:29:50;13.30;99.90
15455;DHT22;21057;51.024;7.540;2023-04-15T08:32:17;13.20;99.90
15455;DHT22;21057;51.024;7.540;2023-04-15T08:34:44;13.10;99.90
15455;DHT22;21057;51.024;7.540;2023-04-15T08:37:11;13.10;99.90
15455;DHT22;21057;51.024;7.540;2023-04-15T08:39:40;13.70;99.90
15455;DHT22;21057;51.024;7.540;2023-04-15T08:42:11;14.40;99.90
15455;DHT22;21057;51.024;7.540;2023-04-15T08:44:42;15.30;99.90
15455;DHT22;21057;51.024;7.540;2023-04-15T08:47:12;15.80;99.90
15455;DHT22;21057;51.024;7.540;2023-04-15T08:49:43;15.70;99.70
15455;DHT22;21057;51.024;7.540;2023-04-15T08:52:11;15.30;99.20
15455;DHT22;21057;51.024;7.540;2023-04-15T08:54:40;15.10;99.40
15455;DHT22;21057;51.024;7.540;2023-04-15T08:57:07;14.40;99.90
15455;DHT22;21057;51.024;7.540;2023-04-15T08:59:35;13.50;99.90
15455;DHT22;21057;51.024;7.540;2023-04-15T09:02:08;13.10;99.90
15455;DHT22;21057;51.024;7.540;2023-04-15T09:04:39;12.70;99.90
15455;DHT22;21057;51.024;7.540;2023-04-15T09:07:08;12.60;99.90
15455;DHT22;21057;51.024;7.540;2023-04-15T09:09:47;12.70;99.90
15455;DHT22;21057;51.024;7.540;2023-04-15T09:12:14;13.20;99.90
15455;DHT22;21057;51.024;7.540;2023-04-15T09:14:44;13.40;99.90
15455;DHT22;21057;51.024;7.540;2023-04-15T09:17:11;13.60;99.90
15455;DHT22;21057;51.024;7.540;2023-04-15T09:19:40;13.70;99.90
15455;DHT22;21057;51.024;7.540;2023-04-15T09:22:08;13.80;99.90
15455;DHT22;21057;51.024;7.540;2023-04-15T09:24:37;13.50;99.90
15455;DHT22;21057;51.024;7.540;2023-04-15T09:27:09;13.20;99.90
15455;DHT22;21057;51.024;7.540;2023-04-15T09:29:42;12.70;99.90
15455;DHT22;21057;51.024;7.540;2023-04-15T09:32:14;12.10;99.90
15455;DHT22;21057;51.024;7.540;2023-04-15T09:34:42;12.10;99.90
15455;DHT22;21057;51.024;7.540;2023-04-15T09:37:09;12.10;99.90
15455;DHT22;21057;51.024;7.540;2023-04-15T09:39:48;12.30;99.90
15455;DHT22;21057;51.024;7.540;2023-04-15T09:42:17;12.70;99.90
15455;DHT22;21057;51.024;7.540;2023-04-15T09:44:48;12.90;99.90
15455;DHT22;21057;51.024;7.540;2023-04-15T09:47:28;13.10;99.90
15455;DHT22;21057;51.024;7.540;2023-04-15T09:49:55;13.70;99.90
15455;DHT22;21057;51.024;7.540;2023-04-15T09:52:25;13.70;99.90
15455;DHT22;21057;51.024;7.540;2023-04-15T09:54:53;13.70;99.90
15455;DHT22;21057;51.024;7.540;2023-04-15T09:57:22;13.60;99.90
15455;DHT22;21057;51.024;7.540;2023-04-15T09:59:49;13.50;99.90
15455;DHT22;21057;51.024;7.540;2023-04-15T10:02:18;13.50;99.90
15455;DHT22;21057;51.024;7.540;2023-04-15T10:04:47;12.90;99.90
15455;DHT22;21057;51.024;7.540;2023-04-15T10:07:14;12.70;99.90
15455;DHT22;21057;51.024;7.540;2023-04-15T10:09:47;12.70;99.90
15455;DHT22;21057;51.024;7.540;2023-04-15T10:12:16;12.30;99.90
15455;DHT22;21057;51.024;7.540;2023-04-15T10:14:48;12.60;99.90
15455;DHT22;21057;51.024;7.540;2023-04-15T10:17:27;12.90;99.90
15455;DHT22;21057;51.024;7.540;2023-04-15T10:19:54;13.10;99.90
15455;DHT22;21057;51.024;7.540;2023-04-15T10:22:23;13.10;99.90
15455;DHT22;21057;51.024;7.540;2023-04-15T10:24:53;13.10;99.90
15455;DHT22;21057;51.024;7.540;2023-04-15T10:27:21;12.80;99.90
15455;DHT22;21057;51.024;7.540;2023-04-15T10:29:50;12.20;99.90
15455;DHT22;21057;51.024;7.540;2023-04-15T10:32:18;12.10;99.90
15455;DHT22;21057;51.024;7.540;2023-04-15T10:34:49;12.40;99.90
15455;DHT22;21057;51.024;7.540;2023-04-15T10:37:20;12.20;99.90
15455;DHT22;21057;51.024;7.540;2023-04-15T10:39:47;12.10;99.90
15455;DHT22;21057;51.024;7.540;2023-04-15T10:42:16;12.20;99.90
15455;DHT22;21057;51.024;7.540;2023-04-15T10:44:44;11.60;99.90
15455;DHT22;21057;51.024;7.540;2023-04-15T10:47:22;11.70;99.90
15455;DHT22;21057;51.024;7.540;2023-04-15T10:49:55;11.70;99.90
15455;DHT22;21057;51.024;7.540;2023-04-15T10:52:25;11.80;99.90
15455;DHT22;21057;51.024;7.540;2023-04-15T10:55:02;11.90;99.90
15455;DHT22;21057;51.024;7.540;2023-04-15T10:57:34;11.90;99.90
15455;DHT22;21057;51.024;7.540;2023-04-15T11:00:09;11.50;99.90
15455;DHT22;21057;51.024;7.540;2023-04-15T11:02:45;11.70;99.90
15455;DHT22;21057;51.024;7.540;2023-04-15T11:05:16;11.70;99.90
15455;DHT22;21057;51.024;7.540;2023-04-15T11:07:53;11.60;99.90
15455;DHT22;21057;51.024;7.540;2023-04-15T11:10:54;11.50;99.90
15455;DHT22;21057;51.024;7.540;2023-04-15T11:13:24;11.40;99.90
15455;DHT22;21057;51.024;7.540;2023-04-15T11:16:00;11.40;99.90
15455;DHT22;21057;51.024;7.540;2023-04-15T11:18:38;11.60;99.90
15455;DHT22;21057;51.024;7.540;2023-04-15T11:21:06;11.60;99.90
15455;DHT22;21057;51.024;7.540;2023-04-15T11:23:37;10.90;99.90
15455;DHT22;21057;51.024;7.540;2023-04-15T11:26:08;10.70;99.90
15455;DHT22;21057;51.024;7.540;2023-04-15T11:28:39;10.60;99.90
15455;DHT22;21057;51.024;7.540;2023-04-15T11:31:08;10.80;99.90
15455;DHT22;21057;51.024;7.540;2023-04-15T11:33:43;11.00;99.90
15455;DHT22;21057;51.024;7.540;2023-04-15T11:36:11;10.80;99.90
15455;DHT22;21057;51.024;7.540;2023-04-15T11:38:41;10.70;99.90
15455;DHT22;21057;51.024;7.540;2023-04-15T11:41:09;10.70;99.90
15455;DHT22;21057;51.024;7.540;2023-04-15T11:43:36;10.80;99.90
15455;DHT22;21057;51.024;7.540;2023-04-15T11:46:07;10.80;99.90
15455;DHT22;21057;51.024;7.540;2023-04-15T11:48:35;10.60;99.90
15455;DHT22;21057;51.024;7.540;2023-04-15T11:51:04;10.70;99.90
15455;DHT22;21057;51.024;7.540;2023-04-15T11:53:36;10.90;99.90
15455;DHT22;21057;51.024;7.540;2023-04-15T11:56:04;10.70;99.90
15455;DHT22;21057;51.024;7.540;2023-04-15T11:58:33;10.70;99.90
15455;DHT22;21057;51.024;7.540;2023-04-15T12:01:03;10.90;99.90
15455;DHT22;21057;51.024;7.540;2023-04-15T12:03:35;11.00;99.90
15455;DHT22;21057;51.024;7.540;2023-04-15T12:06:14;11.00;99.90
15455;DHT22;21057;51.024;7.540;2023-04-15T12:09:00;11.10;99.90
15455;DHT22;21057;51.024;7.540;2023-04-15T12:11:29;11.30;99.90
15455;DHT22;21057;51.024;7.540;2023-04-15T12:14:10;11.10;99.90
15455;DHT22;21057;51.024;7.540;2023-04-15T12:16:42;11.00;99.90
15455;DHT22;21057;51.024;7.540;2023-04-15T12:19:21;10.90;99.90
15455;DHT22;21057;51.024;7.540;2023-04-15T12:21:57;11.00;99.90
15455;DHT22;21057;51.024;7.540;2023-04-15T12:24:26;11.00;99.90
15455;DHT22;21057;51.024;7.540;2023-04-15T12:26:54;10.80;99.90
15455;DHT22;21057;51.024;7.540;2023-04-15T12:29:25;10.70;99.90
15455;DHT22;21057;51.024;7.540;2023-04-15T12:32:04;10.50;99.90
15455;DHT22;21057;51.024;7.540;2023-04-15T12:34:37;10.20;99.90
15455;DHT22;21057;51.024;7.540;2023-04-15T12:37:08;10.20;99.90
15455;DHT22;21057;51.024;7.540;2023-04-15T12:39:39;10.20;99.90
15455;DHT22;21057;51.024;7.540;2023-04-15T12:42:12;10.40;99.90
15455;DHT22;21057;51.024;7.540;2023-04-15T12:44:39;10.30;99.90
15455;DHT22;21057;51.024;7.540;2023-04-15T12:47:10;10.40;99.90
15455;DHT22;21057;51.024;7.540;2023-04-15T12:49:38;10.70;99.90
15455;DHT22;21057;51.024;7.540;2023-04-15T12:52:06;10.70;99.90
15455;DHT22;21057;51.024;7.540;2023-04-15T12:54:40;10.90;99.90
15455;DHT22;21057;51.024;7.540;2023-04-15T12:57:07;10.80;99.90
15455;DHT22;21057;51.024;7.540;2023-04-15T12:59:35;10.60;99.90
15455;DHT22;21057;51.024;7.540;2023-04-15T13:02:04;11.00;99.90
15455;DHT22;21057;51.024;7.540;2023-04-15T13:04:31;11.10;99.90
15455;DHT22;21057;51.024;7.540;2023-04-15T13:07:01;10.90;99.90
15455;DHT22;21057;51.024;7.540;2023-04-15T13:09:29;10.40;99.90
15455;DHT22;21057;51.024;7.540;2023-04-15T13:11:56;10.60;99.90
15455;DHT22;21057;51.024;7.540;2023-04-15T13:14:33;10.60;99.90
15455;DHT22;21057;51.024;7.540;2023-04-15T13:17:13;10.60;99.90
15455;DHT22;21057;51.024;7.540;2023-04-15T13:19:52;10.70;99.90
15455;DHT22;21057;51.024;7.540;2023-04-15T13:22:23;10.90;99.90
15455;DHT22;21057;51.024;7.540;2023-04-15T13:24:51;11.00;99.90
15455;DHT22;21057;51.024;7.540;2023-04-15T13:27:20;10.70;99.90
15455;DHT22;21057;51.024;7.540;2023-04-15T13:29:47;10.60;99.90
15455;DHT22;21057;51.024;7.540;2023-04-15T13:32:14;10.60;99.90
15455;DHT22;21057;51.024;7.540;2023-04-15T13:34:41;10.50;99.90
15455;DHT22;21057;51.024;7.540;2023-04-15T13:37:09;10.30;99.90
15455;DHT22;21057;51.024;7.540;2023-04-15T13:39:36;10.10;99.90
15455;DHT22;21057;51.024;7.540;2023-04-15T13:42:04;10.20;99.90
15455;DHT22;21057;51.024;7.540;2023-04-15T13:44:31;10.20;99.90
15455;DHT22;21057;51.024;7.540;2023-04-15T13:46:58;10.00;99.90
15455;DHT22;21057;51.024;7.540;2023-04-15T13:49:36;10.20;99.90
15455;DHT22;21057;51.024;7.540;2023-04-15T13:52:03;10.40;99.90
15455;DHT22;21057;51.024;7.540;2023-04-15T13:54:30;10.30;99.90
15455;DHT22;21057;51.024;7.540;2023-04-15T13:56:56;10.30;99.90
15455;DHT22;21057;51.024;7.540;2023-04-15T13:59:25;10.00;99.90
15455;DHT22;21057;51.024;7.540;2023-04-15T14:01:52;10.10;99.90
15455;DHT22;21057;51.024;7.540;2023-04-15T14:04:25;10.00;99.90
15455;DHT22;21057;51.024;7.540;2023-04-15T14:06:52;9.70;99.90
15455;DHT22;21057;51.024;7.540;2023-04-15T14:09:20;9.90;99.90
15455;DHT22;21057;51.024;7.540;2023-04-15T14:11:48;10.20;99.90
15455;DHT22;21057;51.024;7.540;2023-04-15T14:14:15;10.20;99.90
15455;DHT22;21057;51.024;7.540;2023-04-15T14:16:45;10.20;99.90
15455;DHT22;21057;51.024;7.540;2023-04-15T14:19:15;9.90;99.90
15455;DHT22;21057;51.024;7.540;2023-04-15T14:21:49;9.80;99.90
15455;DHT22;21057;51.024;7.540;2023-04-15T14:24:20;9.90;99.90
15455;DHT22;21057;51.024;7.540;2023-04-15T14:26:47;10.20;99.90
15455;DHT22;21057;51.024;7.540;2023-04-15T14:29:14;10.30;99.90
15455;DHT22;21057;51.024;7.540;2023-04-15T14:31:41;10.50;99.90
15455;DHT22;21057;51.024;7.540;2023-04-15T14:34:16;10.40;99.90
15455;DHT22;21057;51.024;7.540;2023-04-15T14:36:45;10.10;99.90
15455;DHT22;21057;51.024;7.540;2023-04-15T14:39:13;10.10;99.90
15455;DHT22;21057;51.024;7.540;2023-04-15T14:41:40;10.00;99.90
15455;DHT22;21057;51.024;7.540;2023-04-15T14:44:08;10.10;99.90
15455;DHT22;21057;51.024;7.540;2023-04-15T14:46:38;10.10;99.90
15455;DHT22;21057;51.024;7.540;2023-04-15T14:49:12;10.00;99.90
15455;DHT22;21057;51.024;7.540;2023-04-15T14:51:41;10.10;99.90
15455;DHT22;21057;51.024;7.540;2023-04-15T14:54:18;10.10;99.90
15455;DHT22;21057;51.024;7.540;2023-04-15T14:56:45;10.00;99.90
15455;DHT22;21057;51.024;7.540;2023-04-15T14:59:12;10.10;99.90
15455;DHT22;21057;51.024;7.540;2023-04-15T15:01:38;10.20;99.90
15455;DHT22;21057;51.024;7.540;2023-04-15T15:04:05;10.00;99.90
15455;DHT22;21057;51.024;7.540;2023-04-15T15:06:33;10.00;99.90
15455;DHT22;21057;51.024;7.540;2023-04-15T15:09:07;10.20;99.90
15455;DHT22;21057;51.024;7.540;2023-04-15T15:11:34;10.30;99.90
15455;DHT22;21057;51.024;7.540;2023-04-15T15:14:01;10.60;99.90
15455;DHT22;21057;51.024;7.540;2023-04-15T15:16:28;10.50;99.90
15455;DHT22;21057;51.024;7.540;2023-04-15T15:18:56;10.20;99.90
15455;DHT22;21057;51.024;7.540;2023-04-15T15:21:23;9.80;99.90
15455;DHT22;21057;51.024;7.540;2023-04-15T15:23:51;9.50;99.90
15455;DHT22;21057;51.024;7.540;2023-04-15T15:26:21;9.60;99.90
15455;DHT22;21057;51.024;7.540;2023-04-15T15:28:47;10.00;99.90
15455;DHT22;21057;51.024;7.540;2023-04-15T15:31:15;10.30;99.90
15455;DHT22;21057;51.024;7.540;2023-04-15T15:33:43;10.00;99.90
15455;DHT22;21057;51.024;7.540;2023-04-15T15:36:11;9.90;99.90
15455;DHT22;21057;51.024;7.540;2023-04-15T15:38:39;10.00;99.90
15455;DHT22;21057;51.024;7.540;2023-04-15T15:41:06;9.80;99.90
15455;DHT22;21057;51.024;7.540;2023-04-15T15:43:34;9.90;99.90
15455;DHT22;21057;51.024;7.540;2023-04-15T15:46:02;9.90;99.90
15455;DHT22;21057;51.024;7.540;2023-04-15T15:48:30;9.90;99.90
15455;DHT22;21057;51.024;7.540;2023-04-15T15:50:57;9.90;99.90
15455;DHT22;21057;51.024;7.540;2023-04-15T15:53:24;9.50;99.90